sensor_id;sensor_type;location;lat;lon;timestamp;pressure;altitude;pressure_sealevel;temperature;humidity
14383;BME280;7275;50.328;8.720;2023-05-23T00:00:10;99510.63;;;24.47;46.34
14383;BME280;7275;50.328;8.720;2023-05-23T00:02:40;99510.63;;;24.47;46.37
14383;BME280;7275;50.328;8.720;2023-05-23T00:05:09;99508.78;;;24.48;46.56
14383;BME280;7275;50.328;8.720;2023-05-23T00:07:36;99507.06;;;24.47;46.56
14383;BME280;7275;50.328;8.720;2023-05-23T00:10:05;99506.09;;;24.48;46.54
14383;BME280;7275;50.328;8.720;2023-05-23T00:12:32;99516.75;;;24.49;46.40
14383;BME280;7275;50.328;8.720;2023-05-23T00:15:00;99506.94;;;24.48;46.33
14383;BME280;7275;50.328;8.720;2023-05-23T00:17:28;99512.19;;;24.50;46.65
14383;BME280;7275;50.328;8.720;2023-05-23T00:19:57;99509.34;;;24.51;46.43
14383;BME280;7275;50.328;8.720;2023-05-23T00:22:24;99518.13;;;24.53;46.48
14383;BME280;7275;50.328;8.720;2023-05-23T00:24:52;99526.13;;;24.55;46.46
14383;BME280;7275;50.328;8.720;2023-05-23T00:27:19;99519.84;;;24.54;46.34
14383;BME280;7275;50.328;8.720;2023-05-23T00:29:47;99524.94;;;24.57;46.39
14383;BME280;7275;50.328;8.720;2023-05-23T00:32:14;99522.25;;;24.57;46.56
14383;BME280;7275;50.328;8.720;2023-05-23T00:34:42;99526.66;;;24.58;46.51
14383;BME280;7275;50.328;8.720;2023-05-23T00:37:11;99534.94;;;24.57;46.25
14383;BME280;7275;50.328;8.720;2023-05-23T00:39:40;99525.44;;;24.53;46.40
14383;BME280;7275;50.328;8.720;2023-05-23T00:42:07;99535.66;;;24.49;46.61
14383;BME280;7275;50.328;8.720;2023-05-23T00:44:35;99531.41;;;24.47;46.65
14383;BME280;7275;50.328;8.720;2023-05-23T00:47:04;99533.56;;;24.43;46.67
14383;BME280;7275;50.328;8.720;2023-05-23T00:49:33;99533.72;;;24.42;46.69
14383;BME280;7275;50.328;8.720;2023-05-23T00:52:01;99541.97;;;24.40;46.68
14383;BME280;7275;50.328;8.720;2023-05-23T00:54:30;99540.25;;;24.39;46.79
14383;BME280;7275;50.328;8.720;2023-05-23T00:56:59;99539.72;;;24.36;46.53
14383;BME280;7275;50.328;8.720;2023-05-23T00:59:26;99551.38;;;24.36;46.57
14383;BME280;7275;50.328;8.720;2023-05-23T01:01:55;99544.25;;;24.35;47.01
14383;BME280;7275;50.328;8.720;2023-05-23T01:04:23;99547.25;;;24.32;46.56
14383;BME280;7275;50.328;8.720;2023-05-23T01:06:52;99550.97;;;24.31;46.74
14383;BME280;7275;50.328;8.720;2023-05-23T01:09:21;99546.53;;;24.30;46.99
14383;BME280;7275;50.328;8.720;2023-05-23T01:11:57;99545.00;;;24.28;46.94
14383;BME280;7275;50.328;8.720;2023-05-23T01:14:33;99548.84;;;24.25;47.10
14383;BME280;7275;50.328;8.720;2023-05-23T01:17:08;99534.09;;;24.20;46.96
14383;BME280;7275;50.328;8.720;2023-05-23T01:20:02;99536.22;;;24.16;46.87
14383;BME280;7275;50.328;8.720;2023-05-23T01:22:47;99536.38;;;24.15;47.04
14383;BME280;7275;50.328;8.720;2023-05-23T01:25:27;99535.66;;;24.13;46.91
14383;BME280;7275;50.328;8.720;2023-05-23T01:28:04;99533.13;;;24.11;46.76
14383;BME280;7275;50.328;8.720;2023-05-23T01:30:38;99535.13;;;24.09;47.12
14383;BME280;7275;50.328;8.720;2023-05-23T01:33:07;99534.69;;;24.04;46.91
14383;BME280;7275;50.328;8.720;2023-05-23T01:35:35;99531.53;;;23.99;47.05
14383;BME280;7275;50.328;8.720;2023-05-23T01:38:04;99538.38;;;23.94;47.39
14383;BME280;7275;50.328;8.720;2023-05-23T01:40:31;99539.66;;;23.90;47.34
14383;BME280;7275;50.328;8.720;2023-05-23T01:42:59;99544.53;;;23.86;47.33
14383;BME280;7275;50.328;8.720;2023-05-23T01:45:28;99541.22;;;23.82;47.23
14383;BME280;7275;50.328;8.720;2023-05-23T01:47:57;99551.47;;;23.79;47.37
14383;BME280;7275;50.328;8.720;2023-05-23T01:50:25;99549.09;;;23.76;47.60
14383;BME280;7275;50.328;8.720;2023-05-23T01:52:53;99545.25;;;23.69;47.37
14383;BME280;7275;50.328;8.720;2023-05-23T01:55:21;99548.38;;;23.64;47.33
14383;BME280;7275;50.328;8.720;2023-05-23T01:57:50;99550.63;;;23.59;47.60
14383;BME280;7275;50.328;8.720;2023-05-23T02:00:18;99560.16;;;23.54;47.48
14383;BME280;7275;50.328;8.720;2023-05-23T02:02:47;99555.34;;;23.48;47.56
14383;BME280;7275;50.328;8.720;2023-05-23T02:05:15;99555.06;;;23.41;47.64
14383;BME280;7275;50.328;8.720;2023-05-23T02:07:43;99551.09;;;23.36;47.47
14383;BME280;7275;50.328;8.720;2023-05-23T02:10:10;99556.00;;;23.31;47.92
14383;BME280;7275;50.328;8.720;2023-05-23T02:12:38;99552.91;;;23.26;47.64
14383;BME280;7275;50.328;8.720;2023-05-23T02:15:06;99559.41;;;23.23;47.87
14383;BME280;7275;50.328;8.720;2023-05-23T02:17:37;99566.94;;;23.20;47.94
14383;BME280;7275;50.328;8.720;2023-05-23T02:20:09;99566.19;;;23.18;47.65
14383;BME280;7275;50.328;8.720;2023-05-23T02:22:37;99563.94;;;23.13;48.06
14383;BME280;7275;50.328;8.720;2023-05-23T02:25:06;99567.78;;;23.11;47.71
14383;BME280;7275;50.328;8.720;2023-05-23T02:27:34;99566.19;;;23.08;47.65
14383;BME280;7275;50.328;8.720;2023-05-23T02:30:01;99562.94;;;23.04;48.11
14383;BME280;7275;50.328;8.720;2023-05-23T02:32:29;99573.84;;;23.03;47.75
14383;BME280;7275;50.328;8.720;2023-05-23T02:34:57;99572.56;;;22.97;48.14
14383;BME280;7275;50.328;8.720;2023-05-23T02:37:26;99570.28;;;22.93;48.11
14383;BME280;7275;50.328;8.720;2023-05-23T02:39:54;99577.81;;;22.89;48.12
14383;BME280;7275;50.328;8.720;2023-05-23T02:42:22;99588.00;;;22.86;48.06
14383;BME280;7275;50.328;8.720;2023-05-23T02:44:50;99581.91;;;22.84;48.08
14383;BME280;7275;50.328;8.720;2023-05-23T02:47:17;99596.50;;;22.81;48.07
14383;BME280;7275;50.328;8.720;2023-05-23T02:49:45;99584.28;;;22.77;47.97
14383;BME280;7275;50.328;8.720;2023-05-23T02:52:13;99598.03;;;22.74;47.71
14383;BME280;7275;50.328;8.720;2023-05-23T02:54:42;99594.19;;;22.67;47.72
14383;BME280;7275;50.328;8.720;2023-05-23T02:57:09;99595.47;;;22.63;47.65
14383;BME280;7275;50.328;8.720;2023-05-23T02:59:37;99596.69;;;22.59;47.81
14383;BME280;7275;50.328;8.720;2023-05-23T03:02:04;99597.81;;;22.57;47.58
14383;BME280;7275;50.328;8.720;2023-05-23T03:04:32;99592.81;;;22.52;47.78
14383;BME280;7275;50.328;8.720;2023-05-23T03:06:59;99595.75;;;22.49;47.59
14383;BME280;7275;50.328;8.720;2023-05-23T03:09:32;99596.06;;;22.46;47.72
14383;BME280;7275;50.328;8.720;2023-05-23T03:12:02;99598.84;;;22.45;47.96
14383;BME280;7275;50.328;8.720;2023-05-23T03:14:29;99599.00;;;22.43;47.54
14383;BME280;7275;50.328;8.720;2023-05-23T03:16:57;99600.97;;;22.41;48.12
14383;BME280;7275;50.328;8.720;2023-05-23T03:19:24;99597.69;;;22.38;47.82
14383;BME280;7275;50.328;8.720;2023-05-23T03:21:52;99599.69;;;22.36;48.28
14383;BME280;7275;50.328;8.720;2023-05-23T03:24:19;99606.03;;;22.35;48.29
14383;BME280;7275;50.328;8.720;2023-05-23T03:26:47;99601.75;;;22.32;47.90
14383;BME280;7275;50.328;8.720;2023-05-23T03:29:16;99606.56;;;22.28;48.09
14383;BME280;7275;50.328;8.720;2023-05-23T03:31:43;99611.09;;;22.28;48.33
14383;BME280;7275;50.328;8.720;2023-05-23T03:34:11;99615.75;;;22.26;48.09
14383;BME280;7275;50.328;8.720;2023-05-23T03:36:39;99613.34;;;22.23;48.35
14383;BME280;7275;50.328;8.720;2023-05-23T03:39:06;99615.03;;;22.24;47.99
14383;BME280;7275;50.328;8.720;2023-05-23T03:41:34;99620.44;;;22.24;47.99
14383;BME280;7275;50.328;8.720;2023-05-23T03:44:02;99627.69;;;22.23;48.13
14383;BME280;7275;50.328;8.720;2023-05-23T03:46:30;99633.31;;;22.20;47.86
14383;BME280;7275;50.328;8.720;2023-05-23T03:48:58;99638.97;;;22.17;48.14
14383;BME280;7275;50.328;8.720;2023-05-23T03:51:26;99628.72;;;22.11;48.04
14383;BME280;7275;50.328;8.720;2023-05-23T03:53:54;99627.47;;;22.15;48.27
14383;BME280;7275;50.328;8.720;2023-05-23T03:56:22;99640.09;;;22.15;48.14
14383;BME280;7275;50.328;8.720;2023-05-23T03:58:50;99634.81;;;22.13;48.09
14383;BME280;7275;50.328;8.720;2023-05-23T04:01:17;99634.97;;;22.12;47.99
14383;BME280;7275;50.328;8.720;2023-05-23T04:03:47;99634.09;;;22.11;48.06
14383;BME280;7275;50.328;8.720;2023-05-23T04:06:15;99640.88;;;22.06;47.91
14383;BME280;7275;50.328;8.720;2023-05-23T04:08:43;99643.72;;;22.04;48.04
14383;BME280;7275;50.328;8.720;2023-05-23T04:11:11;99647.38;;;22.03;47.88
14383;BME280;7275;50.328;8.720;2023-05-23T04:13:38;99649.09;;;22.04;47.62
14383;BME280;7275;50.328;8.720;2023-05-23T04:16:06;99656.31;;;22.04;47.95
14383;BME280;7275;50.328;8.720;2023-05-23T04:18:33;99661.69;;;22.04;47.70
14383;BME280;7275;50.328;8.720;2023-05-23T04:21:05;99667.06;;;22.04;47.87
14383;BME280;7275;50.328;8.720;2023-05-23T04:23:33;99667.81;;;22.06;48.09
14383;BME280;7275;50.328;8.720;2023-05-23T04:26:00;99673.66;;;22.11;47.61
14383;BME280;7275;50.328;8.720;2023-05-23T04:28:28;99679.50;;;22.16;47.76
14383;BME280;7275;50.328;8.720;2023-05-23T04:30:55;99680.09;;;22.19;47.48
14383;BME280;7275;50.328;8.720;2023-05-23T04:33:24;99682.53;;;22.22;47.70
14383;BME280;7275;50.328;8.720;2023-05-23T04:35:53;99687.78;;;22.24;47.47
14383;BME280;7275;50.328;8.720;2023-05-23T04:38:22;99686.41;;;22.30;47.20
14383;BME280;7275;50.328;8.720;2023-05-23T04:40:51;99682.56;;;22.32;47.45
14383;BME280;7275;50.328;8.720;2023-05-23T04:43:19;99679.50;;;22.37;47.48
14383;BME280;7275;50.328;8.720;2023-05-23T04:45:47;99677.28;;;22.42;47.08
14383;BME280;7275;50.328;8.720;2023-05-23T04:48:16;99684.97;;;22.46;46.88
14383;BME280;7275;50.328;8.720;2023-05-23T04:50:47;99690.78;;;22.51;46.85
14383;BME280;7275;50.328;8.720;2023-05-23T04:53:16;99691.41;;;22.55;47.13
14383;BME280;7275;50.328;8.720;2023-05-23T04:55:45;99694.56;;;22.60;46.95
14383;BME280;7275;50.328;8.720;2023-05-23T04:58:13;99697.97;;;22.62;46.90
14383;BME280;7275;50.328;8.720;2023-05-23T05:00:40;99697.88;;;22.63;46.51
14383;BME280;7275;50.328;8.720;2023-05-23T05:03:08;99697.00;;;22.63;46.49
14383;BME280;7275;50.328;8.720;2023-05-23T05:05:37;99690.03;;;22.60;46.31
14383;BME280;7275;50.328;8.720;2023-05-23T05:08:04;99702.66;;;22.60;46.51
14383;BME280;7275;50.328;8.720;2023-05-23T05:10:32;99706.94;;;22.62;46.32
14383;BME280;7275;50.328;8.720;2023-05-23T05:13:02;99704.94;;;22.64;46.69
14383;BME280;7275;50.328;8.720;2023-05-23T05:15:29;99713.75;;;22.66;46.18
14383;BME280;7275;50.328;8.720;2023-05-23T05:17:57;99717.16;;;22.68;46.15
14383;BME280;7275;50.328;8.720;2023-05-23T05:20:25;99720.59;;;22.70;46.61
14383;BME280;7275;50.328;8.720;2023-05-23T05:22:56;99728.41;;;22.73;46.52
14383;BME280;7275;50.328;8.720;2023-05-23T05:25:24;99729.13;;;22.75;46.28
14383;BME280;7275;50.328;8.720;2023-05-23T05:27:52;99740.78;;;22.76;46.07
14383;BME280;7275;50.328;8.720;2023-05-23T05:30:22;99728.41;;;22.73;46.19
14383;BME280;7275;50.328;8.720;2023-05-23T05:32:49;99734.53;;;22.75;46.26
14383;BME280;7275;50.328;8.720;2023-05-23T05:35:17;99739.78;;;22.77;46.12
14383;BME280;7275;50.328;8.720;2023-05-23T05:37:44;99733.66;;;22.75;45.94
14383;BME280;7275;50.328;8.720;2023-05-23T05:40:12;99727.69;;;22.71;45.98
14383;BME280;7275;50.328;8.720;2023-05-23T05:42:39;99730.50;;;22.70;45.97
14383;BME280;7275;50.328;8.720;2023-05-23T05:45:07;99736.75;;;22.70;46.15
14383;BME280;7275;50.328;8.720;2023-05-23T05:47:38;99730.50;;;22.70;46.03
14383;BME280;7275;50.328;8.720;2023-05-23T05:50:06;99722.56;;;22.68;46.37
14383;BME280;7275;50.328;8.720;2023-05-23T05:52:35;99734.06;;;22.70;46.29
14383;BME280;7275;50.328;8.720;2023-05-23T05:55:06;99736.03;;;22.68;45.93
14383;BME280;7275;50.328;8.720;2023-05-23T05:57:34;99737.75;;;22.69;45.74
14383;BME280;7275;50.328;8.720;2023-05-23T06:00:05;99737.03;;;22.67;45.86
14383;BME280;7275;50.328;8.720;2023-05-23T06:02:39;99735.06;;;22.69;45.80
14383;BME280;7275;50.328;8.720;2023-05-23T06:05:08;99741.91;;;22.73;45.92
14383;BME280;7275;50.328;8.720;2023-05-23T06:07:37;99739.78;;;22.77;45.88
14383;BME280;7275;50.328;8.720;2023-05-23T06:10:06;99735.81;;;22.81;45.77
14383;BME280;7275;50.328;8.720;2023-05-23T06:12:34;99745.50;;;22.83;45.86
14383;BME280;7275;50.328;8.720;2023-05-23T06:15:02;99742.25;;;22.89;45.57
14383;BME280;7275;50.328;8.720;2023-05-23T06:17:30;99746.16;;;22.96;45.35
14383;BME280;7275;50.328;8.720;2023-05-23T06:19:59;99744.88;;;23.00;45.87
14383;BME280;7275;50.328;8.720;2023-05-23T06:22:26;99757.97;;;23.05;45.56
14383;BME280;7275;50.328;8.720;2023-05-23T06:24:54;99745.94;;;23.09;45.22
14383;BME280;7275;50.328;8.720;2023-05-23T06:27:22;99745.25;;;23.17;45.44
14383;BME280;7275;50.328;8.720;2023-05-23T06:29:49;99742.44;;;23.28;45.39
14383;BME280;7275;50.328;8.720;2023-05-23T06:32:17;99739.41;;;23.42;45.67
14383;BME280;7275;50.328;8.720;2023-05-23T06:34:44;99745.13;;;23.58;45.46
14383;BME280;7275;50.328;8.720;2023-05-23T06:37:13;99733.50;;;23.76;45.42
14383;BME280;7275;50.328;8.720;2023-05-23T06:39:41;99741.94;;;23.93;45.25
14383;BME280;7275;50.328;8.720;2023-05-23T06:42:09;99731.72;;;24.06;45.05
14383;BME280;7275;50.328;8.720;2023-05-23T06:44:36;99742.56;;;24.15;44.84
14383;BME280;7275;50.328;8.720;2023-05-23T06:47:04;99744.38;;;24.24;44.57
14383;BME280;7275;50.328;8.720;2023-05-23T06:49:32;99754.19;;;24.35;44.60
14383;BME280;7275;50.328;8.720;2023-05-23T06:52:00;99739.13;;;24.42;44.43
14383;BME280;7275;50.328;8.720;2023-05-23T06:54:28;99747.91;;;24.53;44.57
14383;BME280;7275;50.328;8.720;2023-05-23T06:56:56;99750.19;;;24.68;44.46
14383;BME280;7275;50.328;8.720;2023-05-23T06:59:24;99754.47;;;24.80;44.28
14383;BME280;7275;50.328;8.720;2023-05-23T07:01:51;99751.44;;;24.92;44.18
14383;BME280;7275;50.328;8.720;2023-05-23T07:04:19;99754.81;;;25.04;43.84
14383;BME280;7275;50.328;8.720;2023-05-23T07:06:47;99747.50;;;25.14;43.56
14383;BME280;7275;50.328;8.720;2023-05-23T07:09:15;99752.06;;;25.23;43.58
14383;BME280;7275;50.328;8.720;2023-05-23T07:11:44;99758.72;;;25.28;43.33
14383;BME280;7275;50.328;8.720;2023-05-23T07:14:11;99757.56;;;25.31;43.20
14383;BME280;7275;50.328;8.720;2023-05-23T07:16:39;99756.44;;;25.33;43.11
14383;BME280;7275;50.328;8.720;2023-05-23T07:19:06;99759.84;;;25.35;43.08
14383;BME280;7275;50.328;8.720;2023-05-23T07:21:34;99752.25;;;25.39;43.22
14383;BME280;7275;50.328;8.720;2023-05-23T07:24:02;99753.56;;;25.45;43.00
14383;BME280;7275;50.328;8.720;2023-05-23T07:26:29;99763.63;;;25.52;42.80
14383;BME280;7275;50.328;8.720;2023-05-23T07:28:58;99766.59;;;25.59;42.87
14383;BME280;7275;50.328;8.720;2023-05-23T07:31:26;99763.03;;;25.58;42.55
14383;BME280;7275;50.328;8.720;2023-05-23T07:33:54;99767.47;;;25.59;42.63
14383;BME280;7275;50.328;8.720;2023-05-23T07:36:22;99768.28;;;25.60;42.52
14383;BME280;7275;50.328;8.720;2023-05-23T07:38:49;99765.44;;;25.61;42.43
14383;BME280;7275;50.328;8.720;2023-05-23T07:41:18;99758.31;;;25.60;42.05
14383;BME280;7275;50.328;8.720;2023-05-23T07:43:46;99768.00;;;25.63;42.22
14383;BME280;7275;50.328;8.720;2023-05-23T07:46:15;99772.56;;;25.62;42.04
14383;BME280;7275;50.328;8.720;2023-05-23T07:48:42;99776.97;;;25.63;42.11
14383;BME280;7275;50.328;8.720;2023-05-23T07:51:10;99773.13;;;25.66;42.21
14383;BME280;7275;50.328;8.720;2023-05-23T07:53:37;99777.38;;;25.68;42.22
14383;BME280;7275;50.328;8.720;2023-05-23T07:56:06;99765.38;;;25.71;42.13
14383;BME280;7275;50.328;8.720;2023-05-23T07:58:33;99766.25;;;25.71;41.98
14383;BME280;7275;50.328;8.720;2023-05-23T08:01:01;99764.53;;;25.70;42.04
14383;BME280;7275;50.328;8.720;2023-05-23T08:03:30;99773.06;;;25.75;42.02
14383;BME280;7275;50.328;8.720;2023-05-23T08:05:57;99777.16;;;25.79;42.07
14383;BME280;7275;50.328;8.720;2023-05-23T08:08:25;99777.25;;;25.87;42.18
14383;BME280;7275;50.328;8.720;2023-05-23T08:10:52;99770.59;;;25.99;41.92
14383;BME280;7275;50.328;8.720;2023-05-23T08:13:20;99768.56;;;26.11;42.01
14383;BME280;7275;50.328;8.720;2023-05-23T08:15:47;99781.59;;;26.25;41.84
14383;BME280;7275;50.328;8.720;2023-05-23T08:18:15;99783.47;;;26.42;41.72
14383;BME280;7275;50.328;8.720;2023-05-23T08:20:44;99782.91;;;26.56;41.57
14383;BME280;7275;50.328;8.720;2023-05-23T08:23:12;99781.81;;;26.67;41.51
14383;BME280;7275;50.328;8.720;2023-05-23T08:25:40;99782.28;;;26.80;41.57
14383;BME280;7275;50.328;8.720;2023-05-23T08:28:07;99790.53;;;26.96;41.31
14383;BME280;7275;50.328;8.720;2023-05-23T08:30:35;99786.53;;;27.08;41.00
14383;BME280;7275;50.328;8.720;2023-05-23T08:33:02;99786.28;;;27.19;40.73
14383;BME280;7275;50.328;8.720;2023-05-23T08:35:30;99785.66;;;27.33;40.35
14383;BME280;7275;50.328;8.720;2023-05-23T08:38:03;99783.88;;;27.42;40.20
14383;BME280;7275;50.328;8.720;2023-05-23T08:40:31;99782.03;;;27.42;39.89
14383;BME280;7275;50.328;8.720;2023-05-23T08:42:58;99788.28;;;27.35;39.68
14383;BME280;7275;50.328;8.720;2023-05-23T08:45:26;99795.50;;;27.26;39.77
14383;BME280;7275;50.328;8.720;2023-05-23T08:47:59;99786.44;;;27.18;39.66
14383;BME280;7275;50.328;8.720;2023-05-23T08:50:29;99779.94;;;27.11;39.75
14383;BME280;7275;50.328;8.720;2023-05-23T08:52:57;99789.91;;;27.02;39.46
14383;BME280;7275;50.328;8.720;2023-05-23T08:55:27;99797.97;;;26.94;39.93
14383;BME280;7275;50.328;8.720;2023-05-23T08:57:57;99793.38;;;26.86;39.88
14383;BME280;7275;50.328;8.720;2023-05-23T09:00:26;99798.56;;;26.80;39.85
14383;BME280;7275;50.328;8.720;2023-05-23T09:02:54;99795.16;;;26.78;40.36
14383;BME280;7275;50.328;8.720;2023-05-23T09:05:22;99807.56;;;26.80;40.09
14383;BME280;7275;50.328;8.720;2023-05-23T09:07:49;99801.28;;;26.80;39.77
14383;BME280;7275;50.328;8.720;2023-05-23T09:10:18;99791.59;;;26.77;40.16
14383;BME280;7275;50.328;8.720;2023-05-23T09:12:47;99797.31;;;26.74;39.71
14383;BME280;7275;50.328;8.720;2023-05-23T09:15:15;99813.59;;;26.74;39.82
14383;BME280;7275;50.328;8.720;2023-05-23T09:17:43;99807.16;;;26.75;40.03
14383;BME280;7275;50.328;8.720;2023-05-23T09:20:12;99806.88;;;26.78;39.81
14383;BME280;7275;50.328;8.720;2023-05-23T09:22:40;99805.53;;;26.82;39.83
14383;BME280;7275;50.328;8.720;2023-05-23T09:25:12;99812.56;;;26.93;39.64
14383;BME280;7275;50.328;8.720;2023-05-23T09:27:40;99811.53;;;27.12;39.80
14383;BME280;7275;50.328;8.720;2023-05-23T09:30:14;99815.19;;;27.28;39.64
14383;BME280;7275;50.328;8.720;2023-05-23T09:32:56;99806.13;;;27.45;40.02
14383;BME280;7275;50.328;8.720;2023-05-23T09:35:27;99827.63;;;27.64;39.36
14383;BME280;7275;50.328;8.720;2023-05-23T09:37:56;99806.97;;;27.72;39.31
14383;BME280;7275;50.328;8.720;2023-05-23T09:40:28;99808.63;;;27.73;38.86
14383;BME280;7275;50.328;8.720;2023-05-23T09:43:01;99803.53;;;27.61;38.82
14383;BME280;7275;50.328;8.720;2023-05-23T09:45:31;99810.88;;;27.43;38.89
14383;BME280;7275;50.328;8.720;2023-05-23T09:47:58;99820.75;;;27.27;38.59
14383;BME280;7275;50.328;8.720;2023-05-23T09:50:30;99822.69;;;27.09;38.95
14383;BME280;7275;50.328;8.720;2023-05-23T09:52:59;99826.97;;;26.93;39.12
14383;BME280;7275;50.328;8.720;2023-05-23T09:55:27;99841.28;;;26.78;39.09
14383;BME280;7275;50.328;8.720;2023-05-23T09:57:58;99840.94;;;26.63;39.29
14383;BME280;7275;50.328;8.720;2023-05-23T10:00:26;99838.16;;;26.55;39.55
14383;BME280;7275;50.328;8.720;2023-05-23T10:03:03;99829.47;;;26.52;39.43
14383;BME280;7275;50.328;8.720;2023-05-23T10:05:35;99825.28;;;26.57;39.38
14383;BME280;7275;50.328;8.720;2023-05-23T10:08:09;99832.34;;;26.68;39.63
14383;BME280;7275;50.328;8.720;2023-05-23T10:11:17;99837.25;;;26.82;39.61
14383;BME280;7275;50.328;8.720;2023-05-23T10:13:58;99836.19;;;27.01;39.38
14383;BME280;7275;50.328;8.720;2023-05-23T10:16:43;99833.75;;;27.15;39.12
14383;BME280;7275;50.328;8.720;2023-05-23T10:19:24;99827.22;;;27.26;39.16
14383;BME280;7275;50.328;8.720;2023-05-23T10:21:56;99829.06;;;27.43;39.12
14383;BME280;7275;50.328;8.720;2023-05-23T10:24:25;99820.13;;;27.58;38.93
14383;BME280;7275;50.328;8.720;2023-05-23T10:26:54;99834.13;;;27.72;38.19
14383;BME280;7275;50.328;8.720;2023-05-23T10:29:22;99838.72;;;27.79;38.18
14383;BME280;7275;50.328;8.720;2023-05-23T10:31:50;99836.56;;;27.83;38.15
14383;BME280;7275;50.328;8.720;2023-05-23T10:34:24;99845.72;;;27.82;37.97
14383;BME280;7275;50.328;8.720;2023-05-23T10:36:59;99853.66;;;27.75;37.75
14383;BME280;7275;50.328;8.720;2023-05-23T10:39:45;99850.44;;;27.72;37.77
14383;BME280;7275;50.328;8.720;2023-05-23T10:42:19;99858.19;;;27.66;38.00
14383;BME280;7275;50.328;8.720;2023-05-23T10:44:49;99855.13;;;27.61;37.68
14383;BME280;7275;50.328;8.720;2023-05-23T10:47:25;99848.31;;;27.57;38.17
14383;BME280;7275;50.328;8.720;2023-05-23T10:49:55;99852.25;;;27.63;38.06
14383;BME280;7275;50.328;8.720;2023-05-23T10:52:23;99855.88;;;27.72;38.26
14383;BME280;7275;50.328;8.720;2023-05-23T10:54:54;99855.38;;;27.76;37.93
14383;BME280;7275;50.328;8.720;2023-05-23T10:57:25;99857.94;;;27.78;38.15
14383;BME280;7275;50.328;8.720;2023-05-23T10:59:53;99869.50;;;27.80;37.56
14383;BME280;7275;50.328;8.720;2023-05-23T11:02:25;99877.34;;;27.83;38.08
14383;BME280;7275;50.328;8.720;2023-05-23T11:05:21;99860.84;;;27.84;37.43
14383;BME280;7275;50.328;8.720;2023-05-23T11:08:06;99864.91;;;27.80;37.40
14383;BME280;7275;50.328;8.720;2023-05-23T11:10:57;99865.22;;;27.77;37.44
14383;BME280;7275;50.328;8.720;2023-05-23T11:13:25;99869.50;;;27.80;37.71
14383;BME280;7275;50.328;8.720;2023-05-23T11:16:26;99867.16;;;27.85;37.43
14383;BME280;7275;50.328;8.720;2023-05-23T11:19:23;99866.72;;;27.97;37.54
14383;BME280;7275;50.328;8.720;2023-05-23T11:21:58;99869.69;;;28.20;38.02
14383;BME280;7275;50.328;8.720;2023-05-23T11:24:46;99871.47;;;28.45;37.48
14383;BME280;7275;50.328;8.720;2023-05-23T11:27:14;99871.03;;;28.66;37.29
14383;BME280;7275;50.328;8.720;2023-05-23T11:29:42;99872.91;;;28.89;37.12
14383;BME280;7275;50.328;8.720;2023-05-23T11:32:09;99854.84;;;29.12;36.84
14383;BME280;7275;50.328;8.720;2023-05-23T11:34:43;99862.38;;;29.35;36.52
14383;BME280;7275;50.328;8.720;2023-05-23T11:37:12;99860.63;;;29.58;36.24
14383;BME280;7275;50.328;8.720;2023-05-23T11:39:39;99859.56;;;29.75;36.22
14383;BME280;7275;50.328;8.720;2023-05-23T11:42:07;99861.34;;;29.98;35.77
14383;BME280;7275;50.328;8.720;2023-05-23T11:44:34;99857.00;;;30.20;36.06
14383;BME280;7275;50.328;8.720;2023-05-23T11:47:03;99858.47;;;30.39;35.28
14383;BME280;7275;50.328;8.720;2023-05-23T11:49:34;99862.66;;;30.49;34.92
14383;BME280;7275;50.328;8.720;2023-05-23T11:52:03;99866.84;;;30.60;34.47
14383;BME280;7275;50.328;8.720;2023-05-23T11:54:33;99865.41;;;30.72;34.69
14383;BME280;7275;50.328;8.720;2023-05-23T11:57:01;99862.22;;;30.91;34.64
14383;BME280;7275;50.328;8.720;2023-05-23T11:59:29;99867.88;;;31.04;34.23
14383;BME280;7275;50.328;8.720;2023-05-23T12:01:57;99868.00;;;31.11;33.76
14383;BME280;7275;50.328;8.720;2023-05-23T12:04:24;99874.91;;;31.21;33.81
14383;BME280;7275;50.328;8.720;2023-05-23T12:06:53;99876.84;;;31.35;33.20
14383;BME280;7275;50.328;8.720;2023-05-23T12:09:21;99872.16;;;31.44;33.24
14383;BME280;7275;50.328;8.720;2023-05-23T12:11:50;99870.75;;;31.48;33.11
14383;BME280;7275;50.328;8.720;2023-05-23T12:14:18;99871.16;;;31.60;32.96
14383;BME280;7275;50.328;8.720;2023-05-23T12:16:45;99865.88;;;31.73;32.81
14383;BME280;7275;50.328;8.720;2023-05-23T12:19:15;99878.50;;;31.88;32.85
14383;BME280;7275;50.328;8.720;2023-05-23T12:21:43;99876.75;;;31.95;32.48
14383;BME280;7275;50.328;8.720;2023-05-23T12:24:14;99884.63;;;31.90;32.05
14383;BME280;7275;50.328;8.720;2023-05-23T12:26:47;99874.66;;;31.68;31.99
14383;BME280;7275;50.328;8.720;2023-05-23T12:29:17;99886.72;;;31.36;31.87
14383;BME280;7275;50.328;8.720;2023-05-23T12:31:47;99891.09;;;31.08;32.05
14383;BME280;7275;50.328;8.720;2023-05-23T12:34:16;99888.00;;;30.89;32.04
14383;BME280;7275;50.328;8.720;2023-05-23T12:36:43;99891.16;;;30.69;31.86
14383;BME280;7275;50.328;8.720;2023-05-23T12:39:23;99889.50;;;30.60;32.33
14383;BME280;7275;50.328;8.720;2023-05-23T12:41:51;99897.34;;;30.63;32.40
14383;BME280;7275;50.328;8.720;2023-05-23T12:44:20;99893.03;;;30.69;31.99
14383;BME280;7275;50.328;8.720;2023-05-23T12:46:47;99895.63;;;30.70;32.02
14383;BME280;7275;50.328;8.720;2023-05-23T12:49:15;99900.03;;;30.71;31.78
14383;BME280;7275;50.328;8.720;2023-05-23T12:51:42;99892.44;;;30.82;32.38
14383;BME280;7275;50.328;8.720;2023-05-23T12:54:10;99892.38;;;30.98;32.36
14383;BME280;7275;50.328;8.720;2023-05-23T12:56:38;99890.84;;;31.18;32.25
14383;BME280;7275;50.328;8.720;2023-05-23T12:59:05;99889.28;;;31.38;32.15
14383;BME280;7275;50.328;8.720;2023-05-23T13:01:34;99901.22;;;31.60;31.91
14383;BME280;7275;50.328;8.720;2023-05-23T13:04:02;99902.91;;;31.61;31.52
14383;BME280;7275;50.328;8.720;2023-05-23T13:06:30;99916.31;;;31.56;31.77
14383;BME280;7275;50.328;8.720;2023-05-23T13:08:59;99918.72;;;31.50;31.57
14383;BME280;7275;50.328;8.720;2023-05-23T13:11:27;99915.41;;;31.40;31.50
14383;BME280;7275;50.328;8.720;2023-05-23T13:13:55;99916.22;;;31.26;31.40
14383;BME280;7275;50.328;8.720;2023-05-23T13:16:23;99913.91;;;31.15;31.58
14383;BME280;7275;50.328;8.720;2023-05-23T13:18:52;99915.38;;;31.03;31.72
14383;BME280;7275;50.328;8.720;2023-05-23T13:21:20;99912.38;;;30.90;31.50